»·PEaware :: EAL1272 KAMA-KCOS

EAL1272 :: KAMA-KCOS

FLIGHT INFORMATION

Flight Status: Arrived
Operator:
Eastern Air Lines
More flights by this operator :: More flights under this callsign
Pilot: Alex S. (7186)
Aircraft: BOEING 727-100
(B721)
More flights by this aircraft type
Origin: KAMA Amarillo Intl
United States
Destination: KCOS City Of Colorado Springs Mun
United States
More flights between these airports :: More routes between these airports
Route: PNH J17 TBE DBRY3
File this flight plan on PilotEdge
Remarks:
Altitude:
(Current/Filed)
30,000ft
Speed:
(Current/Filed)
372kts
Departed: 07-Oct-17 07:08 PM
Arrived: 07-Oct-17 07:57 PM
Distance/Time
Traveled:
258nm/0:49
Distance/Time
To Go:
Arrived

Flight Plot

Page will automatically refresh every two minutes.

Flight plan parsing failed; only flown route is shown


Map Options




Map Legend


Flown Route
Filed Route
Departure Airport
Arrival Airport
Navaid (VOR, NDB)
Fix

Horizontal Profiles

Position Reports

Time Latitude Longitude Heading Altitude Ground
Speed
07-Oct-17 18:51 35.219669 -101.705415 95 3612ft 0kts
07-Oct-17 18:52 35.219669 -101.705415 95 3612ft 0kts
07-Oct-17 18:53 35.219669 -101.705415 95 3612ft 0kts
07-Oct-17 18:54 35.219669 -101.705415 95 3612ft 0kts
07-Oct-17 18:55 35.219669 -101.705415 95 3612ft 0kts
07-Oct-17 18:56 35.219669 -101.705415 95 3612ft 0kts
07-Oct-17 18:57 35.219669 -101.705415 95 3612ft 0kts
07-Oct-17 18:58 35.219669 -101.705415 95 3612ft 0kts
07-Oct-17 18:59 35.219669 -101.705415 95 3612ft 0kts
07-Oct-17 19:00 35.219669 -101.705415 95 3612ft 0kts
07-Oct-17 19:01 35.219678 -101.705531 92 3612ft 1kts
07-Oct-17 19:02 35.219312 -101.705848 337 3614ft 1kts
07-Oct-17 19:03 35.219311 -101.705848 337 3614ft 0kts
07-Oct-17 19:04 35.219311 -101.705848 337 3614ft 0kts
07-Oct-17 19:05 35.219311 -101.705848 337 3614ft 0kts
07-Oct-17 19:06 35.219311 -101.705848 337 3614ft 0kts
07-Oct-17 19:07 35.219857 -101.706415 319 3614ft 3kts
07-Oct-17 19:08 35.222407 -101.705730 46 3611ft 14kts
07-Oct-17 19:09 35.225055 -101.702357 46 3611ft 13kts
07-Oct-17 19:10 35.227661 -101.699059 43 3607ft 11kts
07-Oct-17 19:11 35.229481 -101.698797 315 3607ft 6kts
07-Oct-17 19:12 35.227644 -101.704294 225 3609ft 78kts
07-Oct-17 19:13 35.201522 -101.738344 224 4914ft 171kts
07-Oct-17 19:14 35.169300 -101.779075 224 7597ft 168kts
07-Oct-17 19:15 35.135599 -101.820013 224 9675ft 175kts
07-Oct-17 19:16 35.144458 -101.870883 341 10643ft 259kts
07-Oct-17 19:17 35.228790 -101.893703 329 11777ft 339kts
07-Oct-17 19:18 35.301004 -101.967721 316 14694ft 348kts
07-Oct-17 19:19 35.375318 -102.046737 316 17214ft 362kts
07-Oct-17 19:20 35.452379 -102.128989 316 19355ft 375kts
07-Oct-17 19:21 35.532103 -102.214461 316 21254ft 387kts
07-Oct-17 19:22 35.614149 -102.302830 316 22946ft 399kts
07-Oct-17 19:23 35.698436 -102.394041 316 24468ft 410kts
07-Oct-17 19:24 35.784666 -102.487735 317 25855ft 420kts
07-Oct-17 19:25 35.872934 -102.584031 317 27191ft 429kts
07-Oct-17 19:26 35.962870 -102.682493 316 28427ft 437kts
07-Oct-17 19:27 36.054419 -102.783062 316 29351ft 451kts
07-Oct-17 19:28 36.149347 -102.887682 316 29770ft 474kts
07-Oct-17 19:29 36.249584 -102.998324 317 29957ft 492kts
07-Oct-17 19:30 36.352787 -103.111775 317 29956ft 502kts
07-Oct-17 19:31 36.457972 -103.226671 317 29954ft 506kts
07-Oct-17 19:32 36.574404 -103.321520 338 29958ft 508kts
07-Oct-17 19:33 36.708071 -103.377383 341 29954ft 507kts
07-Oct-17 19:34 36.841820 -103.431140 341 29957ft 505kts
07-Oct-17 19:35 36.964437 -103.480523 341 29952ft 505kts
07-Oct-17 19:36 37.097776 -103.534346 339 29955ft 504kts
07-Oct-17 19:37 37.229291 -103.587009 340 29914ft 503kts
07-Oct-17 19:38 37.351466 -103.664665 304 29213ft 497kts
07-Oct-17 19:39 37.411923 -103.814754 312 28728ft 496kts
07-Oct-17 19:40 37.505602 -103.940193 309 28253ft 493kts
07-Oct-17 19:41 37.597807 -104.067858 309 27400ft 493kts
07-Oct-17 19:42 37.688288 -104.193774 309 26390ft 479kts
07-Oct-17 19:43 37.775595 -104.315767 309 25368ft 461kts
07-Oct-17 19:44 37.860261 -104.434445 309 24049ft 456kts
07-Oct-17 19:45 37.944019 -104.552220 309 22554ft 445kts
07-Oct-17 19:46 38.024453 -104.665305 308 20579ft 422kts
07-Oct-17 19:47 38.100597 -104.772090 309 18688ft 403kts
07-Oct-17 19:48 38.176444 -104.855007 341 17291ft 403kts
07-Oct-17 19:49 38.283968 -104.827011 18 15934ft 400kts
07-Oct-17 19:50 38.386121 -104.778846 18 14851ft 397kts
07-Oct-17 19:51 38.489183 -104.730315 18 13364ft 388kts
07-Oct-17 19:52 38.586837 -104.684127 18 11856ft 366kts
07-Oct-17 19:53 38.681229 -104.639592 18 10374ft 365kts
07-Oct-17 19:54 38.769060 -104.599853 3 9323ft 276kts
07-Oct-17 19:55 38.835103 -104.595276 359 8929ft 219kts
07-Oct-17 19:56 38.890363 -104.591805 351 8318ft 225kts
07-Oct-17 19:57 38.913166 -104.643539 269 7980ft 146kts
07-Oct-17 19:58 38.902512 -104.683863 197 7632ft 146kts
07-Oct-17 19:59 38.861456 -104.685417 183 7061ft 146kts
07-Oct-17 20:00 38.823190 -104.685453 182 6248ft 129kts
07-Oct-17 20:01 38.796259 -104.685785 176 6106ft 19kts
07-Oct-17 20:02 38.791600 -104.686191 211 6106ft 17kts
07-Oct-17 20:03 38.790916 -104.687656 2 6106ft 5kts
07-Oct-17 20:04 38.795178 -104.687682 1 6106ft 25kts
07-Oct-17 20:05 38.802360 -104.687695 358 6106ft 25kts
07-Oct-17 20:06 38.803121 -104.692312 268 6106ft 20kts
07-Oct-17 20:07 38.803125 -104.700297 267 6106ft 18kts
07-Oct-17 20:08 38.799991 -104.700964 182 6106ft 17kts
07-Oct-17 20:09 38.798677 -104.701810 269 6106ft 0kts
07-Oct-17 20:10 38.798677 -104.701810 269 6106ft 0kts
07-Oct-17 20:11 38.798677 -104.701810 269 6106ft 0kts
07-Oct-17 20:12 38.798677 -104.701810 269 6106ft 0kts

Navigation Log

Ident Type
Flight plan parsing failed, navigation log unavailable